createdAt,value
2023-04-14T00:02:02.506Z,7.50
2023-04-14T00:04:31.681Z,8.13
2023-04-14T00:07:01.690Z,10.40
2023-04-14T00:09:30.134Z,9.73
2023-04-14T00:11:58.541Z,9.93
2023-04-14T00:14:27.073Z,8.47
2023-04-14T00:16:55.451Z,9.37
2023-04-14T00:19:23.783Z,11.00
2023-04-14T00:21:52.655Z,8.90
2023-04-14T00:24:22.586Z,12.70
2023-04-14T00:26:51.521Z,9.73
2023-04-14T00:29:19.875Z,11.10
2023-04-14T00:31:48.210Z,11.03
2023-04-14T00:34:16.614Z,8.20
2023-04-14T00:36:45.005Z,9.63
2023-04-14T00:39:13.375Z,10.20
2023-04-14T00:41:43.321Z,9.30
2023-04-14T00:44:11.695Z,8.03
2023-04-14T00:46:41.684Z,10.13
2023-04-14T00:49:11.324Z,8.47
2023-04-14T00:51:40.133Z,11.07
2023-04-14T00:54:10.457Z,10.30
2023-04-14T00:56:39.609Z,11.07
2023-04-14T00:59:10.214Z,13.37
2023-04-14T01:01:40.660Z,11.30
2023-04-14T01:04:09.643Z,9.37
2023-04-14T01:06:38.099Z,10.50
2023-04-14T01:09:07.001Z,9.50
2023-04-14T01:11:50.140Z,9.53
2023-04-14T01:14:36.629Z,9.23
2023-04-14T01:17:14.706Z,11.10
2023-04-14T01:20:13.647Z,9.27
2023-04-14T01:22:50.719Z,12.13
2023-04-14T01:26:15.726Z,8.80
2023-04-14T01:29:12.300Z,8.80
2023-04-14T01:31:48.210Z,11.13
2023-04-14T01:34:26.208Z,8.83
2023-04-14T01:37:04.996Z,9.50
2023-04-14T01:39:39.715Z,8.97
2023-04-14T01:42:16.054Z,9.67
2023-04-14T01:44:46.679Z,12.17
2023-04-14T01:47:22.618Z,12.33
2023-04-14T01:49:54.500Z,10.67
2023-04-14T01:52:24.763Z,9.23
2023-04-14T01:54:56.598Z,11.23
2023-04-14T01:57:28.340Z,8.47
2023-04-14T02:00:00.376Z,11.40
2023-04-14T02:02:32.837Z,11.80
2023-04-14T02:05:05.242Z,9.20
2023-04-14T02:07:36.380Z,10.00
2023-04-14T02:10:10.220Z,11.73
2023-04-14T02:12:45.588Z,10.00
2023-04-14T02:15:17.831Z,10.40
2023-04-14T02:17:51.545Z,10.63
2023-04-14T02:20:22.846Z,12.87
2023-04-14T02:22:51.356Z,12.80
2023-04-14T02:25:20.326Z,11.50
2023-04-14T02:27:57.366Z,12.70
2023-04-14T02:30:32.796Z,11.93
2023-04-14T02:33:08.196Z,12.50
2023-04-14T02:35:48.621Z,12.47
2023-04-14T02:38:24.171Z,10.30
2023-04-14T02:40:52.814Z,12.90
2023-04-14T02:43:31.757Z,13.17
2023-04-14T02:46:05.370Z,20.43
2023-04-14T02:48:37.960Z,12.80
2023-04-14T02:51:11.353Z,17.07
2023-04-14T02:53:40.596Z,10.53
2023-04-14T02:56:32.649Z,13.40
2023-04-14T02:59:02.151Z,14.00
2023-04-14T03:01:33.694Z,10.47
2023-04-14T03:04:04.554Z,15.43
2023-04-14T03:06:39.148Z,15.23
2023-04-14T03:09:08.338Z,13.93
2023-04-14T03:11:40.278Z,11.47
2023-04-14T03:14:09.526Z,12.07
2023-04-14T03:16:40.891Z,12.47
2023-04-14T03:19:13.689Z,11.57
2023-04-14T03:21:47.289Z,12.73
2023-04-14T03:24:23.236Z,13.70
2023-04-14T03:26:57.488Z,11.60
2023-04-14T03:29:28.462Z,11.67
2023-04-14T03:32:00.446Z,11.77
2023-04-14T03:34:32.757Z,13.00
2023-04-14T03:37:02.287Z,13.27
2023-04-14T03:39:34.757Z,12.93
2023-04-14T03:42:07.933Z,13.07
2023-04-14T03:44:39.905Z,13.40
2023-04-14T03:47:10.532Z,12.90
2023-04-14T03:49:48.066Z,13.03
2023-04-14T03:52:17.835Z,10.83
2023-04-14T03:54:48.699Z,16.37
2023-04-14T03:57:18.573Z,12.87
2023-04-14T03:59:50.889Z,10.43
2023-04-14T04:02:24.411Z,12.23
2023-04-14T04:04:57.360Z,12.97
2023-04-14T04:07:28.407Z,12.10
2023-04-14T04:09:58.811Z,11.27
2023-04-14T04:12:29.127Z,12.87
2023-04-14T04:14:57.620Z,13.83
2023-04-14T04:17:29.682Z,11.93
2023-04-14T04:20:02.212Z,14.70
2023-04-14T04:22:37.573Z,13.60
2023-04-14T04:25:08.582Z,13.43
2023-04-14T04:27:38.789Z,13.83
2023-04-14T04:30:17.923Z,14.27
2023-04-14T04:32:47.234Z,12.30
2023-04-14T04:35:17.679Z,13.97
2023-04-14T04:37:50.042Z,13.30
2023-04-14T04:40:19.061Z,13.57
2023-04-14T04:42:49.570Z,17.37
2023-04-14T04:45:45.252Z,14.33
2023-04-14T04:48:13.635Z,14.00
2023-04-14T04:50:46.762Z,14.73
2023-04-14T04:53:15.534Z,13.60
2023-04-14T04:55:43.977Z,13.67
2023-04-14T04:58:12.304Z,14.03
2023-04-14T05:00:40.677Z,14.37
2023-04-14T05:03:09.136Z,16.47
2023-04-14T05:05:37.558Z,15.90
2023-04-14T05:08:07.784Z,14.00
2023-04-14T05:10:36.627Z,15.10
2023-04-14T05:13:05.084Z,16.13
2023-04-14T05:15:33.519Z,15.40
2023-04-14T05:18:02.156Z,18.17
2023-04-14T05:20:30.620Z,39.37
2023-04-14T05:22:59.079Z,20.57
2023-04-14T05:25:28.896Z,14.53
2023-04-14T05:27:57.253Z,15.17
2023-04-14T05:30:26.476Z,20.93
2023-04-14T05:32:54.975Z,19.70
2023-04-14T05:35:25.164Z,15.00
2023-04-14T05:37:53.508Z,23.03
2023-04-14T05:40:22.704Z,19.40
2023-04-14T05:42:52.289Z,16.30
2023-04-14T05:45:20.592Z,21.17
2023-04-14T05:47:48.866Z,18.37
2023-04-14T05:50:17.452Z,20.33
2023-04-14T05:52:46.072Z,16.50
2023-04-14T05:55:14.478Z,18.00
2023-04-14T05:57:43.153Z,17.07
2023-04-14T06:00:14.675Z,21.20
2023-04-14T06:02:44.715Z,18.93
2023-04-14T06:05:13.767Z,18.23
2023-04-14T06:07:42.552Z,18.10
2023-04-14T06:10:12.332Z,17.70
2023-04-14T06:12:41.153Z,16.97
2023-04-14T06:15:10.372Z,17.63
2023-04-14T06:17:40.946Z,14.47
2023-04-14T06:20:11.102Z,17.23
2023-04-14T06:22:40.506Z,18.23
2023-04-14T06:25:10.889Z,18.40
2023-04-14T06:27:39.279Z,16.27
2023-04-14T06:30:09.338Z,16.23
2023-04-14T06:32:39.000Z,17.83
2023-04-14T06:35:12.055Z,16.20
2023-04-14T06:37:44.786Z,14.30
2023-04-14T06:40:14.123Z,13.40
2023-04-14T06:42:42.426Z,13.87
2023-04-14T06:45:11.943Z,15.03
2023-04-14T06:47:41.643Z,15.20
2023-04-14T06:50:11.070Z,11.67
2023-04-14T06:52:39.593Z,16.37
2023-04-14T06:55:08.925Z,13.63
2023-04-14T06:57:37.222Z,11.43
2023-04-14T07:00:09.355Z,15.17
2023-04-14T07:02:37.798Z,14.07
2023-04-14T07:05:09.039Z,13.30
2023-04-14T07:07:37.881Z,13.30
2023-04-14T07:10:07.811Z,12.83
2023-04-14T07:12:36.247Z,10.93
2023-04-14T07:15:05.307Z,13.63
2023-04-14T07:17:33.622Z,11.80
2023-04-14T07:20:03.629Z,13.33
2023-04-14T07:22:33.291Z,17.23
2023-04-14T07:25:01.558Z,13.63
2023-04-14T07:27:31.762Z,11.00
2023-04-14T07:30:00.104Z,10.10
2023-04-14T07:32:28.574Z,11.68
2023-04-14T07:34:58.952Z,11.80
2023-04-14T07:37:27.689Z,10.55
2023-04-14T07:39:58.626Z,17.47
2023-04-14T07:42:27.776Z,10.05
2023-04-14T07:44:56.083Z,11.90
2023-04-14T07:47:24.394Z,15.50
2023-04-14T07:49:54.407Z,16.95
2023-04-14T07:52:22.934Z,14.53
2023-04-14T07:54:51.187Z,11.48
2023-04-14T07:57:21.171Z,12.68
2023-04-14T07:59:49.428Z,12.65
2023-04-14T08:02:18.278Z,17.73
2023-04-14T08:04:46.547Z,13.27
2023-04-14T08:07:16.005Z,12.55
2023-04-14T08:09:44.372Z,13.07
2023-04-14T08:12:12.800Z,13.98
2023-04-14T08:14:42.749Z,14.48
2023-04-14T08:17:11.269Z,12.05
2023-04-14T08:19:39.656Z,10.48
2023-04-14T08:22:07.961Z,10.93
2023-04-14T08:24:39.398Z,12.25
2023-04-14T08:27:07.695Z,15.38
2023-04-14T08:29:36.258Z,10.57
2023-04-14T08:32:06.527Z,10.88
2023-04-14T08:34:34.895Z,9.77
2023-04-14T08:37:03.188Z,9.25
2023-04-14T08:39:31.464Z,7.47
2023-04-14T08:41:59.776Z,8.25
2023-04-14T08:44:28.181Z,8.25
2023-04-14T08:46:57.062Z,9.98
2023-04-14T08:49:37.107Z,8.88
2023-04-14T08:52:07.600Z,9.35
2023-04-14T08:54:36.616Z,9.07
2023-04-14T08:57:06.620Z,8.73
2023-04-14T08:59:35.236Z,9.27
2023-04-14T09:02:06.029Z,7.25
2023-04-14T09:04:37.282Z,9.30
2023-04-14T09:07:07.041Z,7.53
2023-04-14T09:09:35.978Z,8.70
2023-04-14T09:12:05.548Z,7.35
2023-04-14T09:14:36.030Z,9.30
2023-04-14T09:17:04.502Z,7.30
2023-04-14T09:19:35.520Z,7.40
2023-04-14T09:22:03.990Z,9.27
2023-04-14T09:24:34.248Z,10.85
2023-04-14T09:27:05.035Z,12.05
2023-04-14T09:29:33.957Z,6.05
2023-04-14T09:32:02.946Z,7.10
2023-04-14T09:34:32.094Z,8.07
2023-04-14T09:37:05.170Z,5.30
2023-04-14T09:39:34.319Z,6.75
2023-04-14T09:42:04.105Z,8.65
2023-04-14T09:44:32.532Z,8.25
2023-04-14T09:47:02.676Z,16.75
2023-04-14T09:49:31.157Z,7.85
2023-04-14T09:52:07.369Z,8.93
2023-04-14T09:54:37.290Z,5.30
2023-04-14T09:57:06.202Z,7.10
2023-04-14T09:59:36.739Z,7.47
2023-04-14T10:02:07.867Z,2.92
2023-04-14T10:04:37.336Z,4.78
2023-04-14T10:07:08.893Z,5.00
2023-04-14T10:09:38.646Z,6.38
2023-04-14T10:12:13.168Z,9.45
2023-04-14T10:14:42.238Z,5.55
2023-04-14T10:17:10.782Z,8.25
2023-04-14T10:19:39.639Z,5.75
2023-04-14T10:22:10.270Z,9.50
2023-04-14T10:24:39.253Z,6.72
2023-04-14T10:27:07.927Z,7.28
2023-04-14T10:29:36.602Z,8.65
2023-04-14T10:32:09.105Z,5.60
2023-04-14T10:34:42.601Z,4.40
2023-04-14T10:37:16.972Z,4.97
2023-04-14T10:39:55.554Z,5.68
2023-04-14T10:42:24.888Z,8.15
2023-04-14T10:45:08.531Z,8.00
2023-04-14T10:47:41.835Z,7.95
2023-04-14T10:50:15.327Z,7.43
2023-04-14T10:52:56.562Z,9.40
2023-04-14T10:55:27.898Z,8.60
2023-04-14T10:58:06.636Z,5.00
2023-04-14T11:00:39.918Z,5.60
2023-04-14T11:03:12.575Z,6.18
2023-04-14T11:05:45.031Z,5.13
2023-04-14T11:08:20.668Z,4.00
2023-04-14T11:10:51.006Z,4.88
2023-04-14T11:13:20.310Z,3.78
2023-04-14T11:15:51.225Z,5.72
2023-04-14T11:18:32.627Z,4.45
2023-04-14T11:21:06.602Z,4.70
2023-04-14T11:23:38.340Z,4.45
2023-04-14T11:26:08.311Z,4.93
2023-04-14T11:28:39.113Z,5.30
2023-04-14T11:31:09.755Z,5.70
2023-04-14T11:33:41.120Z,6.53
2023-04-14T11:36:12.698Z,8.02
2023-04-14T11:38:45.736Z,6.05
2023-04-14T11:41:16.687Z,8.55
2023-04-14T11:43:48.717Z,3.47
2023-04-14T11:46:20.880Z,6.15
2023-04-14T11:48:49.390Z,3.75
2023-04-14T11:51:20.490Z,5.40
2023-04-14T11:53:50.169Z,6.15
2023-04-14T11:56:19.788Z,6.43
2023-04-14T11:58:48.289Z,4.50
2023-04-14T12:01:24.064Z,5.82
2023-04-14T12:03:53.918Z,6.13
2023-04-14T12:06:23.177Z,6.50
2023-04-14T12:08:56.984Z,9.10
2023-04-14T12:11:25.396Z,4.47
2023-04-14T12:13:54.387Z,3.85
2023-04-14T12:16:25.096Z,6.95
2023-04-14T12:18:53.408Z,5.45
2023-04-14T12:21:21.685Z,8.10
2023-04-14T12:23:50.507Z,6.70
2023-04-14T12:26:21.347Z,8.25
2023-04-14T12:28:57.870Z,3.25
2023-04-14T12:31:31.082Z,5.00
2023-04-14T12:34:04.075Z,5.53
2023-04-14T12:36:48.662Z,7.00
2023-04-14T12:39:17.753Z,7.30
2023-04-14T12:41:47.753Z,6.72
2023-04-14T12:44:17.780Z,5.57
2023-04-14T12:46:50.446Z,4.80
2023-04-14T12:49:37.365Z,5.57
2023-04-14T12:52:08.023Z,4.15
2023-04-14T12:54:51.804Z,9.45
2023-04-14T12:57:22.874Z,5.03
2023-04-14T12:59:52.003Z,6.60
2023-04-14T13:02:20.858Z,7.57
2023-04-14T13:04:49.397Z,5.03
2023-04-14T13:07:18.629Z,6.13
2023-04-14T13:09:47.133Z,6.10
2023-04-14T13:12:15.440Z,5.28
2023-04-14T13:14:45.210Z,6.45
2023-04-14T13:17:13.727Z,6.15
2023-04-14T13:19:42.124Z,6.00
2023-04-14T13:22:10.513Z,5.05
2023-04-14T13:24:38.846Z,5.40
2023-04-14T13:27:07.864Z,5.68
2023-04-14T13:29:36.618Z,6.55
2023-04-14T13:32:10.811Z,4.10
2023-04-14T13:34:40.061Z,5.95
2023-04-14T13:37:08.414Z,7.18
2023-04-14T13:39:36.772Z,7.70
2023-04-14T13:42:05.855Z,6.05
2023-04-14T13:44:35.208Z,7.05
2023-04-14T13:47:04.873Z,7.63
2023-04-14T13:49:33.177Z,5.35
2023-04-14T13:52:01.497Z,5.90
2023-04-14T13:54:29.810Z,6.90
2023-04-14T13:56:58.123Z,5.53
2023-04-14T13:59:27.018Z,4.57
2023-04-14T14:01:55.470Z,6.57
2023-04-14T14:04:25.525Z,6.80
2023-04-14T14:06:53.930Z,4.38
2023-04-14T14:09:22.201Z,6.10
2023-04-14T14:11:50.581Z,6.40
2023-04-14T14:14:18.851Z,6.50
2023-04-14T14:16:47.205Z,6.65
2023-04-14T14:19:17.135Z,8.93
2023-04-14T14:21:46.960Z,6.10
2023-04-14T14:24:15.214Z,5.13
2023-04-14T14:26:43.952Z,5.10
2023-04-14T14:29:12.816Z,6.15
2023-04-14T14:31:41.171Z,7.68
2023-04-14T14:34:10.080Z,5.10
2023-04-14T14:36:38.549Z,4.75
2023-04-14T14:39:09.116Z,6.35
2023-04-14T14:41:37.738Z,7.65
2023-04-14T14:44:06.444Z,6.88
2023-04-14T14:46:35.401Z,8.85
2023-04-14T14:49:03.790Z,7.00
2023-04-14T14:51:32.301Z,5.60
2023-04-14T14:54:09.350Z,5.10
2023-04-14T14:56:40.141Z,8.57
2023-04-14T14:59:09.569Z,5.40
2023-04-14T15:01:37.948Z,6.72
2023-04-14T15:04:06.881Z,7.05
2023-04-14T15:06:36.043Z,5.13
2023-04-14T15:09:06.023Z,6.70
2023-04-14T15:11:34.380Z,6.15
2023-04-14T15:14:04.798Z,6.68
2023-04-14T15:16:33.236Z,8.15
2023-04-14T15:19:01.620Z,5.80
2023-04-14T15:21:31.920Z,6.38
2023-04-14T15:24:00.470Z,5.80
2023-04-14T15:26:28.970Z,5.85
2023-04-14T15:28:57.207Z,5.60
2023-04-14T15:31:26.880Z,5.15
2023-04-14T15:33:55.812Z,6.97
2023-04-14T15:36:24.349Z,7.75
2023-04-14T15:38:52.773Z,5.07
2023-04-14T15:41:21.159Z,6.60
2023-04-14T15:43:51.426Z,7.53
2023-04-14T15:46:20.305Z,6.78
2023-04-14T15:48:50.271Z,7.13
2023-04-14T15:51:19.553Z,5.18
2023-04-14T15:53:47.815Z,5.88
2023-04-14T15:56:16.188Z,6.10
2023-04-14T15:58:44.492Z,7.28
2023-04-14T16:01:12.848Z,8.02
2023-04-14T16:03:41.523Z,5.43
2023-04-14T16:06:11.423Z,5.55
2023-04-14T16:08:39.783Z,4.95
2023-04-14T16:11:08.452Z,6.32
2023-04-14T16:13:36.857Z,6.43
2023-04-14T16:16:05.724Z,6.35
2023-04-14T16:18:36.597Z,6.97
2023-04-14T16:21:05.240Z,5.60
2023-04-14T16:23:35.019Z,5.05
2023-04-14T16:26:03.346Z,5.47
2023-04-14T16:28:32.064Z,5.53
2023-04-14T16:31:01.332Z,9.07
2023-04-14T16:33:31.584Z,6.68
2023-04-14T16:36:04.056Z,4.78
2023-04-14T16:38:33.903Z,4.80
2023-04-14T16:41:03.407Z,4.50
2023-04-14T16:43:31.994Z,3.78
2023-04-14T16:46:03.861Z,5.13
2023-04-14T16:48:33.113Z,4.57
2023-04-14T16:51:05.707Z,4.47
2023-04-14T16:53:36.416Z,4.32
2023-04-14T16:56:06.232Z,4.22
2023-04-14T16:58:34.632Z,3.50
2023-04-14T17:01:03.111Z,3.65
2023-04-14T17:03:31.634Z,3.50
2023-04-14T17:06:00.241Z,3.38
2023-04-14T17:08:28.599Z,5.07
2023-04-14T17:10:58.845Z,4.57
2023-04-14T17:13:27.925Z,3.03
2023-04-14T17:16:06.175Z,3.47
2023-04-14T17:18:36.973Z,3.28
2023-04-14T17:21:06.782Z,7.32
2023-04-14T17:23:37.673Z,5.85
2023-04-14T17:26:08.022Z,4.35
2023-04-14T17:28:37.144Z,5.03
2023-04-14T17:31:13.210Z,4.25
2023-04-14T17:33:42.894Z,4.85
2023-04-14T17:36:14.677Z,4.20
2023-04-14T17:38:43.707Z,4.85
2023-04-14T17:41:13.697Z,5.60
2023-04-14T17:43:42.347Z,6.32
2023-04-14T17:46:11.686Z,6.78
2023-04-14T17:48:42.612Z,5.75
2023-04-14T17:51:12.434Z,5.25
2023-04-14T17:53:41.436Z,7.32
2023-04-14T17:56:11.268Z,7.47
2023-04-14T17:58:41.051Z,6.40
2023-04-14T18:01:09.730Z,12.77
2023-04-14T18:03:38.124Z,8.15
2023-04-14T18:06:06.839Z,11.25
2023-04-14T18:08:35.288Z,8.82
2023-04-14T18:11:03.640Z,10.60
2023-04-14T18:13:33.470Z,10.48
2023-04-14T18:16:03.173Z,12.45
2023-04-14T18:18:31.610Z,11.18
2023-04-14T18:20:59.979Z,9.93
2023-04-14T18:23:28.605Z,12.82
2023-04-14T18:28:32.681Z,13.13
2023-04-14T18:31:02.552Z,11.48
2023-04-14T18:33:31.611Z,14.30
2023-04-14T18:36:01.204Z,12.90
2023-04-14T18:38:29.906Z,11.90
2023-04-14T18:41:03.443Z,12.63
2023-04-14T18:43:32.795Z,12.55
2023-04-14T18:46:03.802Z,12.80
2023-04-14T18:48:32.249Z,13.73
2023-04-14T18:51:04.231Z,13.50
2023-04-14T18:53:32.793Z,10.60
2023-04-14T18:56:01.691Z,13.95
2023-04-14T18:58:30.378Z,15.70
2023-04-14T19:00:58.980Z,15.45
2023-04-14T19:03:28.737Z,12.90
2023-04-14T19:05:57.440Z,14.15
2023-04-14T19:08:26.236Z,16.17
2023-04-14T19:10:54.614Z,14.57
2023-04-14T19:13:24.027Z,14.45
2023-04-14T19:15:52.847Z,15.52
2023-04-14T19:18:21.322Z,16.63
2023-04-14T19:20:50.993Z,16.63
2023-04-14T19:23:19.424Z,16.50
2023-04-14T19:25:48.578Z,15.05
2023-04-14T19:28:17.986Z,15.32
2023-04-14T19:30:47.220Z,15.88
2023-04-14T19:33:16.125Z,17.27
2023-04-14T19:35:45.090Z,14.55
2023-04-14T19:38:15.364Z,17.10
2023-04-14T19:40:47.996Z,15.88
2023-04-14T19:43:16.555Z,16.10
2023-04-14T19:45:57.106Z,16.20
2023-04-14T19:48:25.893Z,17.50
2023-04-14T19:50:55.526Z,18.50
2023-04-14T19:53:27.196Z,16.60
2023-04-14T19:55:58.147Z,16.52
2023-04-14T19:58:28.527Z,16.33
2023-04-14T20:00:58.096Z,14.95
2023-04-14T20:03:28.203Z,15.48
2023-04-14T20:05:58.865Z,15.73
2023-04-14T20:08:28.815Z,12.30
2023-04-14T20:10:57.654Z,13.10
2023-04-14T20:13:30.488Z,12.02
2023-04-14T20:15:58.864Z,13.07
2023-04-14T20:18:28.605Z,15.13
2023-04-14T20:20:58.435Z,13.98
2023-04-14T20:23:28.746Z,14.13
2023-04-14T20:25:57.212Z,12.60
2023-04-14T20:28:26.550Z,11.20
2023-04-14T20:30:56.032Z,13.27
2023-04-14T20:33:25.227Z,14.23
2023-04-14T20:35:54.500Z,13.77
2023-04-14T20:38:23.571Z,13.02
2023-04-14T20:40:54.951Z,15.98
2023-04-14T20:43:23.646Z,12.98
2023-04-14T20:45:53.239Z,14.32
2023-04-14T20:48:21.655Z,14.88
2023-04-14T20:50:50.423Z,15.95
2023-04-14T20:53:21.906Z,17.63
2023-04-14T20:55:50.920Z,16.52
2023-04-14T20:58:20.624Z,15.00
2023-04-14T21:00:49.098Z,14.15
2023-04-14T21:03:18.062Z,18.40
2023-04-14T21:05:47.278Z,15.02
2023-04-14T21:08:15.758Z,15.75
2023-04-14T21:11:15.802Z,13.07
2023-04-14T21:15:40.019Z,14.13
2023-04-14T21:16:22.138Z,17.23
2023-04-14T21:18:50.702Z,11.93
2023-04-14T21:21:19.079Z,15.07
2023-04-14T21:23:47.415Z,12.40
2023-04-14T21:26:15.760Z,12.37
2023-04-14T21:28:45.699Z,13.30
2023-04-14T21:31:14.101Z,10.70
2023-04-14T21:33:42.466Z,13.13
2023-04-14T21:36:10.960Z,11.27
2023-04-14T21:38:39.558Z,14.75
2023-04-14T21:41:09.367Z,14.43
2023-04-14T21:43:39.487Z,14.47
2023-04-14T21:46:09.969Z,14.25
2023-04-14T21:48:38.453Z,13.82
2023-04-14T21:51:07.668Z,13.30
2023-04-14T21:53:38.408Z,14.35
2023-04-14T21:56:10.496Z,13.70
2023-04-14T21:58:40.245Z,13.37
2023-04-14T22:01:10.736Z,15.02
2023-04-14T22:03:41.807Z,13.90
2023-04-14T22:06:11.114Z,12.95
2023-04-14T22:08:40.837Z,12.35
2023-04-14T22:11:09.347Z,16.30
2023-04-14T22:13:37.980Z,13.95
2023-04-14T22:16:07.727Z,11.18
2023-04-14T22:18:38.842Z,13.40
2023-04-14T22:21:09.675Z,11.23
2023-04-14T22:23:39.791Z,11.82
2023-04-14T22:26:08.989Z,13.07
2023-04-14T22:28:37.520Z,10.70
2023-04-14T22:31:06.416Z,12.23
2023-04-14T22:33:36.438Z,11.57
2023-04-14T22:36:08.671Z,12.48
2023-04-14T22:38:37.039Z,11.98
2023-04-14T22:41:05.443Z,11.90
2023-04-14T22:43:33.790Z,13.10
2023-04-14T22:46:02.228Z,11.33
2023-04-14T22:48:30.933Z,11.55
2023-04-14T22:50:59.201Z,11.33
2023-04-14T22:53:28.960Z,11.10
2023-04-14T22:55:58.160Z,7.93
2023-04-14T22:58:27.075Z,7.57
2023-04-14T23:00:55.321Z,6.18
2023-04-14T23:03:23.888Z,5.73
2023-04-14T23:05:52.780Z,7.20
2023-04-14T23:08:22.858Z,6.43
2023-04-14T23:10:52.568Z,6.33
2023-04-14T23:13:21.523Z,6.77
2023-04-14T23:15:52.816Z,8.37
2023-04-14T23:18:21.951Z,7.43
2023-04-14T23:20:50.572Z,7.27
2023-04-14T23:23:18.855Z,6.23
2023-04-14T23:25:47.418Z,6.17
2023-04-14T23:28:17.178Z,8.43
2023-04-14T23:30:45.510Z,6.73
2023-04-14T23:33:14.398Z,7.30
2023-04-14T23:35:42.771Z,8.87
2023-04-14T23:38:11.157Z,6.38
2023-04-14T23:40:39.971Z,7.47
2023-04-14T23:43:08.324Z,6.77
2023-04-14T23:45:38.249Z,7.50
2023-04-14T23:48:07.497Z,6.67
2023-04-14T23:51:01.488Z,7.30
2023-04-14T23:53:24.569Z,8.32
2023-04-14T23:55:53.109Z,7.60
2023-04-14T23:58:26.637Z,6.27
